Flight Track Log - Related Links

Times and Time Zones

All times are in EDT time to prevent confusion due to time zone crossing. See the RPA3108 flight status page for this flight to view local times or setup timezone preferences in your user account.

Time Position Orientation Groundspeed Altitude Reporting Facility
EDT Latitude Longitude Course Direction KTS MPH feet Rate Location/Type
Sat 07:02:00 AM 33.0158 -79.6851 59° Northeast  Level FlightAware Approximate
Sat 07:02:43 AM 32.9614 -79.8772 30° Northeast 260 299 6,500  Level Jacksonville Center
Sat 07:03:00 AM 33.0721 -79.5743 54° Northeast  Level FlightAware Approximate
Sat 07:03:43 AM 32.9886 -79.7919 69° East 265 305 9,200  Level Jacksonville Center
Sat 07:04:00 AM 33.1353 -79.4690 54° Northeast  Level FlightAware Approximate
Sat 07:04:43 AM 33.0197 -79.7042 67° East 277 319 11,700  Level Jacksonville Center
Sat 07:05:00 AM 33.2011 -79.3660 28° Northeast  Level FlightAware Approximate
Sat 07:05:43 AM 33.0678 -79.6183 56° Northeast 282 325 14,100  Level Jacksonville Center
Sat 07:06:00 AM 33.2970 -79.3050 28° Northeast  Level FlightAware Approximate
Sat 07:06:43 AM 33.1175 -79.5247 58° Northeast 310 357 15,800  Level Jacksonville Center
Sat 07:07:00 AM 33.3927 -79.2435 30° Northeast  Level FlightAware Approximate
Sat 07:07:43 AM 33.1711 -79.4283 56° Northeast 335 386 17,600  Level Jacksonville Center
Sat 07:08:00 AM 33.4865 -79.1778 30° Northeast  Level FlightAware Approximate
Sat 07:08:43 AM 33.2461 -79.3433 43° Northeast 357 411 19,200  Level Jacksonville Center
Sat 07:09:43 AM 33.3383 -79.2828 29° Northeast 362 417 21,000 1,750 Climbing Jacksonville Center
Sat 07:10:43 AM 33.4367 -79.2189 28° Northeast 376 433 22,700 1,650 Climbing Jacksonville Center
Sat 07:11:43 AM 33.5369 -79.1575 27° Northeast 387 445 24,300 1,516 Climbing Jacksonville Center
Sat 07:13:49 AM 33.7514 -79.0158 29° Northeast 399 459 27,400 1,380 Climbing Washington Center
Sat 07:14:50 AM 33.8556 -78.9500 28° Northeast 405 466 28,600 1,180 Climbing Washington Center
Sat 07:15:51 AM 33.9639 -78.8792 28° Northeast 416 479 29,800 1,190 Climbing Washington Center
Sat 07:16:51 AM 34.0744 -78.8058 29° Northeast 436 502 31,000 1,200 Climbing Washington Center
Sat 07:17:51 AM 34.1850 -78.7325 29° Northeast 447 514 32,200 966 Climbing Washington Center
Sat 07:18:49 AM 34.2931 -78.6586 29° Northeast 447 514 32,900 403 Climbing Washington Center
Sat 07:19:50 AM 34.3872 -78.5692 38° Northeast 434 499 33,000 49 Climbing Washington Center
Sat 07:20:51 AM 34.4769 -78.4817 39° Northeast 422 486 33,000  Level Washington Center
Sat 07:21:49 AM 34.5667 -78.3914 40° Northeast 417 480 33,000  Level Washington Center
Sat 07:22:50 AM 34.6564 -78.3011 40° Northeast 417 480 33,000  Level Washington Center
Sat 07:23:51 AM 34.7439 -78.2131 40° Northeast 411 473 33,000  Level Washington Center
Sat 07:24:49 AM 34.8211 -78.1244 43° Northeast 411 473 33,000  Level Washington Center
Sat 07:25:49 AM 34.9061 -78.0411 39° Northeast 405 466 33,000  Level Washington Center
Sat 07:26:49 AM 34.9981 -77.9425 41° Northeast 410 472 33,000  Level Washington Center
Sat 07:27:50 AM 35.0853 -77.8561 39° Northeast 410 472 33,000  Level Washington Center
Sat 07:28:49 AM 35.1703 -77.7644 41° Northeast 410 472 33,000  Level Washington Center
Sat 07:29:49 AM 35.2681 -77.6653 40° Northeast 415 478 33,000  Level Washington Center
Sat 07:30:49 AM 35.3553 -77.5733 41° Northeast 409 471 33,000  Level Washington Center
Sat 07:31:50 AM 35.4156 -77.4550 58° Northeast 403 464 33,000  Level Washington Center
Sat 07:32:51 AM 35.4736 -77.3264 61° Northeast 410 472 33,000 -407 Level Washington Center
Sat 07:33:48 AM 35.5772 -77.2444 33° Northeast 416 479 32,200 -1,017 Descending Washington Center
Sat 07:34:49 AM 35.6908 -77.1675 29° Northeast 434 499 31,000 -1,091 Descending Washington Center
Sat 07:35:49 AM 35.7814 -77.1000 31° Northeast 439 505 30,000 -992 Descending Washington Center
Sat 07:36:50 AM 35.8908 -77.0253 29° Northeast 439 505 29,000 -492 Descending Washington Center
Sat 07:37:51 AM 35.9981 -76.9528 29° Northeast 439 505 29,000  Level Washington Center
Sat 07:38:51 AM 36.1011 -76.8747 31° Northeast 434 499 29,000  Level Washington Center
Sat 07:39:49 AM 36.2106 -76.8019 28° Northeast 434 499 29,000  Level Washington Center
Sat 07:40:50 AM 36.3197 -76.7261 29° Northeast 434 499 29,000  Level Washington Center
Sat 07:41:49 AM 36.4289 -76.6503 29° Northeast 441 507 29,000  Level Washington Center
Sat 07:42:50 AM 36.5381 -76.5717 30° Northeast 441 507 29,000  Level Washington Center
Sat 07:43:50 AM 36.6450 -76.4981 29° Northeast 441 507 29,000  Level Washington Center
Sat 07:44:51 AM 36.7561 -76.4164 30° Northeast 441 507 29,000  Level Washington Center
Sat 07:45:49 AM 36.8608 -76.3394 30° Northeast 441 507 29,000  Level Washington Center
Sat 07:46:50 AM 36.9678 -76.2600 31° Northeast 441 507 29,000  Level Washington Center
Sat 07:47:50 AM 37.0767 -76.1828 29° Northeast 441 507 29,000  Level Washington Center
Sat 07:48:51 AM 37.1875 -76.1106 27° Northeast 441 507 29,000  Level Washington Center
Sat 07:49:49 AM 37.2983 -76.0383 27° Northeast 441 507 29,000  Level Washington Center
Sat 07:50:49 AM 37.4133 -75.9578 29° Northeast 436 502 29,000 -50 Level Washington Center
Sat 07:51:48 AM 37.5200 -75.8825 29° Northeast 436 502 28,900 -550 Descending Washington Center
Sat 07:52:49 AM 37.6244 -75.8119 28° Northeast 436 502 27,900 -992 Descending Washington Center
Sat 07:53:49 AM 37.7289 -75.7414 28° Northeast 436 502 26,900 -1,131 Descending Washington Center
Sat 07:54:51 AM 37.8331 -75.6653 30° Northeast 436 502 25,600 -1,400 Descending Washington Center
Sat 07:55:49 AM 37.9353 -75.5944 29° Northeast 425 489 24,100 -1,525 Descending Washington Center
Sat 07:56:49 AM 38.0314 -75.5286 28° Northeast 411 473 22,600 -1,500 Descending Washington Center
Sat 07:57:49 AM 38.1292 -75.4625 28° Northeast 396 456 21,100 -1,488 Descending Washington Center
Sat 07:58:50 AM 38.2250 -75.3936 29° Northeast 396 456 19,600 -1,328 Descending Washington Center
Sat 07:59:51 AM 38.3042 -75.3431 27° Northeast 391 450 18,400 -1,059 Descending Washington Center
Sat 08:00:49 AM 38.4019 -75.2683 31° Northeast 383 441 17,500 -1,068 Descending Washington Center
Sat 08:01:49 AM 38.4936 -75.1992 31° Northeast 377 434 16,300 -1,190 Descending Washington Center
Sat 08:02:50 AM 38.5831 -75.1375 28° Northeast 366 421 15,100 -689 Descending Washington Center
Sat 08:03:51 AM 38.6703 -75.0731 30° Northeast 366 421 14,900 -101 Descending Washington Center
Sat 08:04:49 AM 38.7617 -75.0167 26° Northeast 366 421 14,900 -458 Level Washington Center
Sat 08:05:49 AM 38.8489 -74.9572 28° Northeast 361 415 14,000 -950 Descending Washington Center
Sat 08:06:49 AM 38.9406 -74.9058 24° Northeast 361 415 13,000 -992 Descending Washington Center
Sat 08:07:50 AM 39.0278 -74.8542 25° Northeast 356 410 12,000 -496 Descending Washington Center
Sat 08:08:50 AM 39.1275 -74.7969 24° Northeast 351 404 12,000  Level Washington Center
Sat 08:09:50 AM 39.2125 -74.7478 24° Northeast 351 404 12,000  Level Washington Center
Sat 08:10:49 AM 39.2808 -74.6961 30° Northeast 316 364 12,000  Level Washington Center
Sat 08:11:50 AM 39.3431 -74.6417 34° Northeast 285 328 12,000 -462 Level Washington Center
Sat 08:14:17 AM 39.4667 -74.7500 326° Northwest 306 352 10,400 -746 Descending Philadelphia TRACON
Sat 08:15:11 AM 39.5000 -74.8333 297° West 301 346 9,500 -947 Descending Philadelphia TRACON
Sat 08:16:11 AM 39.5167 -74.9500 281° West 297 342 8,600 -714 Descending Philadelphia TRACON
Sat 08:17:17 AM 39.5000 -75.0667 260° West 301 346 8,000 -381 Descending Philadelphia TRACON
Sat 08:18:17 AM 39.4667 -75.1500 243° Southwest 254 292 7,800 -500 Descending Philadelphia TRACON
Sat 08:19:17 AM 39.5000 -75.2333 297° West 231 266 7,000 -400 Descending Philadelphia TRACON
Sat 08:20:17 AM 39.5500 -75.2833 322° Northwest 237 273 7,000 -150 Level Philadelphia TRACON
Sat 08:21:17 AM 39.6000 -75.3167 333° Northwest 219 252 6,700 -500 Descending Philadelphia TRACON
Sat 08:22:17 AM 39.6667 -75.3500 339° North 208 239 6,000 -350 Descending Philadelphia TRACON
Sat 08:23:17 AM 39.7167 -75.3667 346° North 210 242 6,000  Level Philadelphia TRACON
Sat 08:24:17 AM 39.7167 -75.4500 270° West 222 255 6,000  Level Philadelphia TRACON

Login

Don't have an account? Register now (free) for customized features, flight alerts, and more!